Time;durP1;ratioP1;P1;durP2;ratioP2;P2;SDS_P1;SDS_P2;PMS_P1;PMS_P2;Temp;Humidity;BMP_temperature;BMP_pressure;BME280_temperature;BME280_humidity;BME280_pressure;Samples;Min_cycle;Max_cycle;Signal;HPM_P1;HPM_P2
2023/03/26 00:01:37;;;;;;;1.20;1.10;;;8.30;97.30;;;;;;5106440;28;20455;-86
2023/03/26 00:04:05;;;;;;;1.20;1.10;;;8.30;97.30;;;;;;5099681;28;20427;-86
2023/03/26 00:06:35;;;;;;;1.10;1.00;;;8.30;97.30;;;;;;5091622;28;20428;-86
2023/03/26 00:09:01;;;;;;;1.10;1.00;;;8.30;97.30;;;;;;5091409;28;20432;-88
2023/03/26 00:11:28;;;;;;;1.00;0.90;;;8.30;97.30;;;;;;5103161;28;20496;-86
2023/03/26 00:13:57;;;;;;;1.20;1.10;;;8.20;97.30;;;;;;5096998;28;20182;-86
2023/03/26 00:16:25;;;;;;;1.10;1.00;;;8.20;97.30;;;;;;5099810;28;20446;-86
2023/03/26 00:18:52;;;;;;;2.43;1.10;;;8.20;97.30;;;;;;5095871;28;20446;-86
2023/03/26 00:21:20;;;;;;;1.57;1.47;;;8.10;97.30;;;;;;5098949;28;20431;-86
2023/03/26 00:23:47;;;;;;;1.10;1.00;;;8.10;97.30;;;;;;5106254;28;20797;-86
2023/03/26 00:26:14;;;;;;;2.40;1.20;;;8.10;97.30;;;;;;5120269;28;20855;-83
2023/03/26 00:28:42;;;;;;;1.00;0.90;;;8.10;97.30;;;;;;5110434;28;20441;-85
2023/03/26 00:31:13;;;;;;;1.07;0.97;;;8.10;97.30;;;;;;5123706;28;20515;-82
2023/03/26 00:33:46;;;;;;;0.90;0.80;;;8.10;97.30;;;;;;5121133;28;20408;-86
2023/03/26 00:36:15;;;;;;;1.10;1.00;;;8.00;97.30;;;;;;5112984;28;20484;-86
2023/03/26 00:38:42;;;;;;;1.10;1.00;;;8.00;97.30;;;;;;5115327;28;20469;-84
2023/03/26 00:41:16;;;;;;;1.53;1.43;;;8.00;97.30;;;;;;5120012;28;20415;-83
2023/03/26 00:43:45;;;;;;;1.23;1.20;;;8.00;97.30;;;;;;5120168;28;20410;-87
2023/03/26 00:46:11;;;;;;;1.10;1.00;;;8.00;97.30;;;;;;5112812;28;20415;-86
2023/03/26 00:48:38;;;;;;;1.20;1.10;;;8.00;97.30;;;;;;5116914;28;20436;-84
2023/03/26 00:51:07;;;;;;;1.10;1.00;;;8.00;97.30;;;;;;5107096;28;20470;-87
2023/03/26 00:53:33;;;;;;;1.00;0.90;;;8.00;97.30;;;;;;5114345;28;20456;-86
2023/03/26 00:56:01;;;;;;;1.00;0.90;;;8.00;97.30;;;;;;5110191;28;20408;-84
2023/03/26 00:58:28;;;;;;;1.20;1.10;;;8.00;97.30;;;;;;5124053;28;20189;-85
2023/03/26 01:01:02;;;;;;;1.20;1.10;;;8.00;97.30;;;;;;5116659;28;20428;-83
2023/03/26 01:03:34;;;;;;;3.13;1.40;;;8.00;97.30;;;;;;5122887;28;21103;-83
2023/03/26 01:06:06;;;;;;;3.60;1.93;;;8.00;97.30;;;;;;5119305;28;20484;-86
2023/03/26 01:08:37;;;;;;;1.10;1.00;;;8.00;97.30;;;;;;5116756;28;20450;-89
2023/03/26 01:11:12;;;;;;;1.30;1.20;;;8.00;97.30;;;;;;5122965;28;20415;-83
2023/03/26 01:13:42;;;;;;;1.10;1.00;;;7.90;97.30;;;;;;5117040;28;20491;-84
2023/03/26 01:16:35;;;;;;;0.90;0.80;;;8.00;97.30;;;;;;5109634;28;20408;-82
2023/03/26 01:19:02;;;;;;;1.20;1.10;;;8.00;97.30;;;;;;5112728;28;20901;-83
2023/03/26 01:21:29;;;;;;;1.20;1.10;;;8.00;97.30;;;;;;5109088;28;20416;-82
2023/03/26 01:23:58;;;;;;;1.63;1.50;;;8.00;97.30;;;;;;5110308;28;20443;-86
2023/03/26 01:26:31;;;;;;;2.57;1.90;;;8.00;97.30;;;;;;5117324;28;20423;-85
2023/03/26 01:29:01;;;;;;;1.00;0.90;;;8.00;97.30;;;;;;5112989;28;20443;-85
2023/03/26 01:31:46;;;;;;;1.20;1.10;;;8.00;97.30;;;;;;5114862;28;20487;-83
2023/03/26 01:34:23;;;;;;;1.00;0.90;;;8.00;97.30;;;;;;5103823;28;20495;-84
2023/03/26 01:36:58;;;;;;;1.17;1.07;;;8.00;97.30;;;;;;5116083;28;20427;-84
2023/03/26 01:39:37;;;;;;;1.13;1.03;;;8.00;97.30;;;;;;5109127;28;20484;-86
2023/03/26 01:42:10;;;;;;;1.00;0.90;;;7.90;97.30;;;;;;5098654;28;20441;-84
2023/03/26 01:44:46;;;;;;;6.40;2.50;;;7.90;97.30;;;;;;5104663;28;20507;-85
2023/03/26 01:47:14;;;;;;;1.30;1.20;;;7.90;97.30;;;;;;5113471;28;20443;-84
2023/03/26 01:49:39;;;;;;;1.30;1.20;;;7.90;97.30;;;;;;5112239;28;20448;-86
2023/03/26 01:52:11;;;;;;;11.53;1.97;;;7.90;97.30;;;;;;5111382;28;20816;-84
2023/03/26 01:54:37;;;;;;;1.00;0.90;;;7.80;97.30;;;;;;5109591;28;20179;-87
2023/03/26 01:57:35;;;;;;;1.00;0.90;;;7.80;97.30;;;;;;5117728;28;20514;-87
2023/03/26 02:00:12;;;;;;;1.87;1.77;;;7.80;97.30;;;;;;5095480;28;20427;-85
2023/03/26 02:02:55;;;;;;;1.10;1.00;;;7.80;97.30;;;;;;5109539;28;20576;-82
2023/03/26 02:05:33;;;;;;;2.17;1.53;;;7.80;97.30;;;;;;5103076;28;20420;-83
2023/03/26 02:08:10;;;;;;;1.30;1.23;;;7.80;97.30;;;;;;5111995;28;20450;-85
2023/03/26 02:10:41;;;;;;;0.90;0.80;;;7.80;97.30;;;;;;5104168;28;20443;-86
2023/03/26 02:13:06;;;;;;;1.23;1.13;;;7.80;97.30;;;;;;5111834;28;20845;-86
2023/03/26 02:15:32;;;;;;;1.10;1.00;;;7.80;97.30;;;;;;5110937;28;20478;-85
2023/03/26 02:17:58;;;;;;;1.10;1.00;;;7.80;97.30;;;;;;5115994;28;20221;-86
2023/03/26 02:20:28;;;;;;;1.10;1.00;;;7.80;97.30;;;;;;5109626;28;20572;-83
2023/03/26 02:22:54;;;;;;;1.10;1.00;;;7.80;97.30;;;;;;5116281;28;20710;-85
2023/03/26 02:25:21;;;;;;;1.10;1.00;;;7.80;97.30;;;;;;5108089;28;20428;-83
2023/03/26 02:27:49;;;;;;;1.10;1.00;;;7.70;97.30;;;;;;5112610;28;20996;-84
2023/03/26 02:30:20;;;;;;;1.10;1.00;;;7.70;97.30;;;;;;5108248;28;20412;-83
2023/03/26 02:32:45;;;;;;;1.00;0.90;;;7.70;97.30;;;;;;5107795;28;20472;-84
2023/03/26 02:35:11;;;;;;;1.73;1.63;;;7.70;97.30;;;;;;5109368;28;21126;-86
2023/03/26 02:37:38;;;;;;;1.77;1.43;;;7.70;97.30;;;;;;5113188;28;20633;-87
2023/03/26 02:40:09;;;;;;;1.10;1.00;;;7.70;97.30;;;;;;5109564;28;20417;-86
2023/03/26 02:42:35;;;;;;;13.60;3.00;;;7.70;97.30;;;;;;5107602;28;20419;-85
2023/03/26 02:45:01;;;;;;;1.10;1.00;;;7.70;97.30;;;;;;5105422;28;20513;-84
2023/03/26 02:47:26;;;;;;;1.33;1.23;;;7.60;97.30;;;;;;5107488;28;20189;-87
2023/03/26 02:49:52;;;;;;;1.67;1.40;;;7.60;97.30;;;;;;5108902;28;20203;-86
2023/03/26 02:52:18;;;;;;;1.13;1.03;;;7.60;97.30;;;;;;5112917;28;20237;-87
2023/03/26 02:54:43;;;;;;;1.20;1.10;;;7.60;97.30;;;;;;5106153;28;20581;-82
2023/03/26 02:57:09;;;;;;;1.00;0.90;;;7.60;97.30;;;;;;5118402;28;20191;-83
2023/03/26 02:59:34;;;;;;;15.97;1.47;;;7.60;97.30;;;;;;5115406;28;20191;-84
2023/03/26 03:02:07;;;;;;;1.10;1.00;;;7.60;97.30;;;;;;5118361;28;20717;-84
2023/03/26 03:04:33;;;;;;;1.20;1.10;;;7.60;97.30;;;;;;5120121;28;20178;-83
2023/03/26 03:07:01;;;;;;;1.27;1.17;;;7.60;97.30;;;;;;5118696;28;20445;-86
2023/03/26 03:09:26;;;;;;;2.20;1.10;;;7.60;97.30;;;;;;5120474;28;20234;-84
2023/03/26 03:11:55;;;;;;;1.30;1.20;;;7.70;97.30;;;;;;5119148;28;20449;-83
2023/03/26 03:14:23;;;;;;;1.33;1.23;;;7.60;97.30;;;;;;5122385;28;20272;-83
2023/03/26 03:16:48;;;;;;;1.13;1.03;;;7.60;97.30;;;;;;5115479;28;20954;-85
2023/03/26 03:19:14;;;;;;;1.70;1.10;;;7.60;97.30;;;;;;5120058;28;20526;-82
2023/03/26 03:21:42;;;;;;;12.87;2.53;;;7.60;97.30;;;;;;5117743;28;20232;-83
2023/03/26 03:24:12;;;;;;;1.00;0.90;;;7.60;97.30;;;;;;5112079;28;20184;-84
2023/03/26 03:26:40;;;;;;;0.90;0.80;;;7.50;97.30;;;;;;5112418;28;20578;-84
2023/03/26 03:29:05;;;;;;;1.10;1.00;;;7.50;97.30;;;;;;5112503;28;20572;-83
2023/03/26 03:31:31;;;;;;;1.10;1.00;;;7.50;97.30;;;;;;5117124;28;20459;-84
2023/03/26 03:33:56;;;;;;;1.00;0.90;;;7.40;97.30;;;;;;5120908;28;20201;-82
2023/03/26 03:36:26;;;;;;;1.30;1.20;;;7.50;97.30;;;;;;5118694;28;20402;-83
2023/03/26 03:39:01;;;;;;;1.20;1.10;;;7.50;97.30;;;;;;5120302;28;20212;-87
2023/03/26 03:41:27;;;;;;;1.00;0.90;;;7.40;97.30;;;;;;5117358;28;20414;-85
2023/03/26 03:43:52;;;;;;;1.10;1.00;;;7.40;97.30;;;;;;5114417;28;20413;-85
2023/03/26 03:46:18;;;;;;;1.20;1.10;;;7.40;97.30;;;;;;5119814;28;20995;-85
2023/03/26 03:48:48;;;;;;;1.93;1.83;;;7.40;97.30;;;;;;5110853;28;20198;-83
2023/03/26 03:51:14;;;;;;;1.43;1.33;;;7.40;97.30;;;;;;5115863;28;20173;-86
2023/03/26 03:53:40;;;;;;;1.07;0.97;;;7.50;97.30;;;;;;5107490;28;20459;-86
2023/03/26 03:56:08;;;;;;;1.13;1.03;;;7.50;97.30;;;;;;5113802;28;20421;-84
2023/03/26 03:58:34;;;;;;;1.13;1.07;;;7.50;97.30;;;;;;5101765;28;20198;-86
2023/03/26 04:01:01;;;;;;;1.43;1.40;;;7.50;97.30;;;;;;5106332;28;20412;-85
2023/03/26 04:03:27;;;;;;;1.63;1.53;;;7.50;97.30;;;;;;5103282;28;20272;-86
2023/03/26 04:05:53;;;;;;;1.10;1.00;;;7.50;97.30;;;;;;5111406;28;20439;-86
2023/03/26 04:08:20;;;;;;;1.10;1.00;;;7.50;97.30;;;;;;5109592;28;20197;-84
2023/03/26 04:10:46;;;;;;;1.10;1.00;;;7.50;97.30;;;;;;5103124;28;20411;-86
2023/03/26 04:13:13;;;;;;;1.20;1.10;;;7.50;97.30;;;;;;5113243;28;20458;-85
2023/03/26 04:15:39;;;;;;;3.70;1.53;;;7.50;97.30;;;;;;5101135;28;20511;-84
2023/03/26 04:18:09;;;;;;;0.93;0.83;;;7.50;97.30;;;;;;5113470;28;20929;-82
2023/03/26 04:20:36;;;;;;;1.20;1.10;;;7.50;97.30;;;;;;5114775;28;20431;-85
2023/03/26 04:23:03;;;;;;;1.00;0.90;;;7.50;97.30;;;;;;5103530;28;20428;-83
2023/03/26 04:25:29;;;;;;;1.17;1.07;;;7.50;97.30;;;;;;5108982;28;20413;-86
2023/03/26 04:27:57;;;;;;;1.20;1.10;;;7.40;97.30;;;;;;5118231;28;20492;-86
2023/03/26 04:30:23;;;;;;;1.10;1.00;;;7.40;97.30;;;;;;5112868;28;20431;-85
2023/03/26 04:32:50;;;;;;;38.33;1.73;;;7.40;97.30;;;;;;5117072;28;20462;-84
2023/03/26 04:35:17;;;;;;;1.00;0.90;;;7.40;97.30;;;;;;5107438;28;20432;-84
2023/03/26 04:37:44;;;;;;;1.20;1.10;;;7.40;97.30;;;;;;5113320;28;20786;-86
2023/03/26 04:40:20;;;;;;;1.30;1.17;;;7.40;97.30;;;;;;5111255;28;20417;-86
2023/03/26 04:42:46;;;;;;;1.00;0.90;;;7.40;97.30;;;;;;5110555;28;20430;-84
2023/03/26 04:45:21;;;;;;;1.20;1.10;;;7.40;97.30;;;;;;5110600;28;20423;-85
2023/03/26 04:47:47;;;;;;;1.10;1.00;;;7.30;97.30;;;;;;5113439;28;20181;-85
2023/03/26 04:50:13;;;;;;;0.90;0.80;;;7.30;97.30;;;;;;5102909;28;20940;-83
2023/03/26 04:52:39;;;;;;;1.27;1.17;;;7.30;97.30;;;;;;5106690;28;20460;-86
2023/03/26 04:55:12;;;;;;;1.10;1.00;;;7.40;97.30;;;;;;5103274;28;20173;-84
2023/03/26 04:57:44;;;;;;;1.60;1.57;;;7.30;97.30;;;;;;5112249;28;20431;-86
2023/03/26 05:00:14;;;;;;;1.40;1.30;;;7.30;97.30;;;;;;5091893;28;20427;-86
2023/03/26 05:02:44;;;;;;;1.53;1.50;;;7.30;97.30;;;;;;5104353;28;20474;-84
2023/03/26 05:05:11;;;;;;;1.00;0.90;;;7.30;97.30;;;;;;5095603;28;20487;-85
2023/03/26 05:07:36;;;;;;;1.10;1.00;;;7.30;97.30;;;;;;5108442;28;20498;-86
2023/03/26 05:10:03;;;;;;;1.00;0.90;;;7.30;97.30;;;;;;5111923;28;20480;-85
2023/03/26 05:12:29;;;;;;;1.00;1.00;;;7.30;97.30;;;;;;5113633;28;20220;-85
2023/03/26 05:14:55;;;;;;;1.00;0.90;;;7.30;97.30;;;;;;5108350;28;20417;-83
2023/03/26 05:17:23;;;;;;;1.77;1.10;;;7.30;97.30;;;;;;5112447;28;20428;-83
2023/03/26 05:19:50;;;;;;;1.30;1.20;;;7.30;97.30;;;;;;5093371;28;20205;-85
2023/03/26 05:22:17;;;;;;;1.10;1.00;;;7.30;97.30;;;;;;5108925;28;20440;-85
2023/03/26 05:24:42;;;;;;;0.90;0.80;;;7.40;97.30;;;;;;5116843;28;20412;-86
2023/03/26 05:27:12;;;;;;;1.50;1.20;;;7.40;97.30;;;;;;5106154;28;20958;-83
2023/03/26 05:29:37;;;;;;;1.10;1.00;;;7.50;97.30;;;;;;5113650;28;20198;-83
2023/03/26 05:32:03;;;;;;;1.00;0.90;;;7.50;97.30;;;;;;5103974;28;20859;-82
2023/03/26 05:34:28;;;;;;;1.00;0.90;;;7.60;97.30;;;;;;5115201;28;20173;-86
2023/03/26 05:36:54;;;;;;;2.90;1.13;;;7.60;97.30;;;;;;5103236;28;20244;-86
2023/03/26 05:39:24;;;;;;;1.13;1.03;;;7.70;97.30;;;;;;5113321;28;20220;-85
2023/03/26 05:41:51;;;;;;;1.10;1.00;;;7.70;97.30;;;;;;5116329;28;20177;-82
2023/03/26 05:44:17;;;;;;;1.00;0.90;;;7.80;97.30;;;;;;5107667;28;20425;-86
2023/03/26 05:46:42;;;;;;;1.20;1.10;;;7.80;97.30;;;;;;5108963;28;20507;-83
2023/03/26 05:49:08;;;;;;;1.00;0.90;;;7.90;97.30;;;;;;5110490;28;20224;-83
2023/03/26 05:51:33;;;;;;;1.00;0.90;;;7.90;97.30;;;;;;5099775;28;20182;-83
2023/03/26 05:53:59;;;;;;;1.00;0.90;;;7.90;97.30;;;;;;5117647;28;20178;-84
2023/03/26 05:56:24;;;;;;;1.17;1.07;;;8.00;97.30;;;;;;5110970;28;20200;-84
2023/03/26 05:58:50;;;;;;;1.17;1.07;;;8.10;97.30;;;;;;5114534;28;20217;-85
2023/03/26 06:01:17;;;;;;;1.40;1.30;;;8.20;97.30;;;;;;5103364;28;20633;-84
2023/03/26 06:03:44;;;;;;;0.97;0.90;;;8.20;97.30;;;;;;5113749;28;20412;-80
2023/03/26 06:06:15;;;;;;;1.43;1.27;;;8.20;97.30;;;;;;5110870;28;20422;-83
2023/03/26 06:08:47;;;;;;;0.90;0.80;;;8.30;97.30;;;;;;5114255;28;20461;-82
2023/03/26 06:11:14;;;;;;;1.03;0.93;;;8.30;97.30;;;;;;5108358;28;20420;-85
2023/03/26 06:13:40;;;;;;;1.30;1.20;;;8.20;97.30;;;;;;5114106;28;20552;-84
2023/03/26 06:16:07;;;;;;;1.00;0.90;;;8.30;97.30;;;;;;5112998;28;20530;-82
2023/03/26 06:18:32;;;;;;;0.90;0.80;;;8.20;97.30;;;;;;5112141;28;20499;-84
2023/03/26 06:20:58;;;;;;;1.00;0.90;;;8.20;97.30;;;;;;5111848;28;20452;-82
2023/03/26 06:23:24;;;;;;;1.20;1.10;;;8.30;97.30;;;;;;5110619;28;20186;-84
2023/03/26 06:25:49;;;;;;;1.00;0.90;;;8.30;97.30;;;;;;5110133;28;20269;-82
2023/03/26 06:28:15;;;;;;;1.00;0.90;;;8.30;97.30;;;;;;5118463;28;20193;-85
2023/03/26 06:30:41;;;;;;;1.17;1.07;;;8.30;97.30;;;;;;5086097;28;20680;-87
2023/03/26 06:33:07;;;;;;;1.47;1.30;;;8.30;97.30;;;;;;5103941;28;20459;-86
2023/03/26 06:35:33;;;;;;;0.77;0.73;;;8.40;97.30;;;;;;5096155;28;20423;-86
2023/03/26 06:37:58;;;;;;;1.00;0.90;;;8.40;97.30;;;;;;5098131;28;20190;-86
2023/03/26 06:40:24;;;;;;;1.10;1.00;;;8.40;97.30;;;;;;5099965;28;20170;-86
2023/03/26 06:42:50;;;;;;;0.80;0.80;;;8.40;97.30;;;;;;5105446;28;20667;-85
2023/03/26 06:45:16;;;;;;;1.33;1.23;;;8.40;97.30;;;;;;5100690;28;20787;-86
2023/03/26 06:47:42;;;;;;;1.00;0.90;;;8.50;97.30;;;;;;5094703;28;20472;-86
2023/03/26 06:50:16;;;;;;;1.17;1.07;;;8.50;97.30;;;;;;5104891;28;20185;-86
2023/03/26 06:52:43;;;;;;;1.30;1.20;;;8.50;97.30;;;;;;5101600;28;20203;-86
2023/03/26 06:55:16;;;;;;;1.37;1.27;;;8.50;97.30;;;;;;5102635;28;20404;-86
2023/03/26 06:57:44;;;;;;;1.27;1.20;;;8.50;97.30;;;;;;5104604;28;20469;-85
2023/03/26 07:00:10;;;;;;;1.87;1.30;;;8.60;97.30;;;;;;5101632;28;20416;-86
2023/03/26 07:02:36;;;;;;;1.33;1.23;;;8.60;97.30;;;;;;5081642;28;20449;-86
2023/03/26 07:05:01;;;;;;;4.77;1.63;;;8.60;97.30;;;;;;5095136;28;20444;-86
2023/03/26 07:07:27;;;;;;;1.20;1.10;;;8.70;97.30;;;;;;5107944;28;20185;-86
2023/03/26 07:09:55;;;;;;;1.10;1.00;;;8.70;97.30;;;;;;5094799;28;20201;-86
2023/03/26 07:12:20;;;;;;;1.13;1.03;;;8.80;97.30;;;;;;5091865;28;20210;-86
2023/03/26 07:14:46;;;;;;;1.33;1.23;;;8.80;97.30;;;;;;5087854;28;20417;-86
2023/03/26 07:17:11;;;;;;;1.07;1.07;;;8.80;97.30;;;;;;5106964;28;20177;-86
2023/03/26 07:19:37;;;;;;;1.53;1.20;;;8.90;97.30;;;;;;5098874;28;20198;-86
2023/03/26 07:22:03;;;;;;;1.40;1.30;;;9.00;97.30;;;;;;5103437;28;20263;-86
2023/03/26 07:24:29;;;;;;;1.20;1.10;;;9.00;97.30;;;;;;5104555;28;20220;-87
2023/03/26 07:27:16;;;;;;;1.00;0.90;;;9.10;97.30;;;;;;5091055;28;20926;-86
2023/03/26 07:29:51;;;;;;;1.47;1.37;;;9.10;97.30;;;;;;5101384;28;20209;-86
2023/03/26 07:32:48;;;;;;;1.17;1.07;;;9.20;97.30;;;;;;5088901;28;20483;-86
2023/03/26 07:35:35;;;;;;;0.90;0.80;;;9.40;97.30;;;;;;5108512;28;20452;-87
2023/03/26 07:38:31;;;;;;;1.83;1.73;;;9.50;97.30;;;;;;5097114;28;20447;-87
2023/03/26 07:41:29;;;;;;;1.00;0.90;;;9.60;97.30;;;;;;5100186;28;20458;-86
2023/03/26 07:43:54;;;;;;;1.00;0.90;;;9.70;97.30;;;;;;5097662;28;20421;-86
2023/03/26 07:46:27;;;;;;;1.00;0.90;;;9.70;97.30;;;;;;5099789;28;20454;-86
2023/03/26 07:48:53;;;;;;;1.00;0.90;;;9.80;97.30;;;;;;5097712;28;20293;-86
2023/03/26 07:51:19;;;;;;;1.00;0.90;;;9.70;97.30;;;;;;5088114;28;20426;-86
2023/03/26 07:53:45;;;;;;;1.10;1.00;;;9.70;97.30;;;;;;5104315;28;20657;-87
2023/03/26 07:56:33;;;;;;;1.00;0.90;;;9.80;97.30;;;;;;5085617;28;20182;-86
2023/03/26 07:59:25;;;;;;;0.90;0.80;;;9.90;97.30;;;;;;5098920;28;20206;-86
2023/03/26 08:02:26;;;;;;;1.83;1.40;;;9.90;97.30;;;;;;5104927;28;20431;-86
2023/03/26 08:05:18;;;;;;;1.00;0.90;;;10.00;97.30;;;;;;5088496;28;20794;-85
2023/03/26 08:08:01;;;;;;;2.70;2.07;;;10.00;97.30;;;;;;5100801;28;20459;-86
2023/03/26 08:10:40;;;;;;;1.27;1.17;;;10.10;97.30;;;;;;5084231;28;20425;-86
2023/03/26 08:13:50;;;;;;;1.00;0.90;;;10.00;97.30;;;;;;5092789;28;20484;-86
2023/03/26 08:16:27;;;;;;;1.13;1.03;;;10.00;97.30;;;;;;5060599;28;20409;-87
2023/03/26 08:19:24;;;;;;;1.40;1.30;;;10.00;97.30;;;;;;5096102;28;20436;-86
2023/03/26 08:22:05;;;;;;;1.83;1.73;;;10.10;97.30;;;;;;5093977;28;20990;-86
2023/03/26 08:25:00;;;;;;;1.10;1.00;;;10.20;97.30;;;;;;5102445;28;20508;-86
2023/03/26 08:27:43;;;;;;;7.50;1.10;;;10.20;97.30;;;;;;5097560;28;20510;-86
2023/03/26 08:30:17;;;;;;;1.70;1.00;;;10.20;97.30;;;;;;5098947;28;20550;-87
2023/03/26 08:32:51;;;;;;;0.90;0.80;;;10.20;97.30;;;;;;5091678;28;21057;-86
2023/03/26 08:35:17;;;;;;;1.10;1.00;;;10.30;97.30;;;;;;5104228;28;20467;-86
2023/03/26 08:37:44;;;;;;;1.00;0.90;;;10.40;97.30;;;;;;5103572;28;20445;-87
2023/03/26 08:40:10;;;;;;;14.50;1.20;;;10.30;97.30;;;;;;5092832;28;20174;-87
2023/03/26 08:42:49;;;;;;;1.00;0.90;;;10.30;97.30;;;;;;5098936;28;20425;-87
2023/03/26 08:45:33;;;;;;;1.00;0.90;;;10.40;97.30;;;;;;5096955;28;20957;-87
2023/03/26 08:48:36;;;;;;;1.30;1.20;;;10.40;97.30;;;;;;5106812;28;20439;-84
2023/03/26 08:51:31;;;;;;;18.73;2.77;;;10.40;97.30;;;;;;5100142;28;20417;-86
2023/03/26 08:54:05;;;;;;;1.80;1.70;;;10.50;97.30;;;;;;5101525;28;20718;-86
2023/03/26 08:56:48;;;;;;;1.20;1.10;;;10.60;97.30;;;;;;5130583;28;20431;-86
2023/03/26 08:59:37;;;;;;;2.13;2.00;;;10.70;97.30;;;;;;5103786;28;20440;-86
2023/03/26 09:02:39;;;;;;;1.07;1.03;;;10.70;97.30;;;;;;5094021;28;20408;-85
2023/03/26 09:05:35;;;;;;;1.47;1.37;;;10.80;97.30;;;;;;5089491;28;20435;-86
2023/03/26 09:08:22;;;;;;;1.53;1.43;;;10.90;97.30;;;;;;5089942;28;20975;-86
2023/03/26 09:11:16;;;;;;;1.00;0.90;;;11.00;97.30;;;;;;5106091;28;20417;-86
2023/03/26 09:13:50;;;;;;;5.90;2.03;;;11.10;97.30;;;;;;5098769;28;20463;-86
2023/03/26 09:16:47;;;;;;;2.13;1.17;;;11.10;97.30;;;;;;5092364;28;21057;-86
2023/03/26 09:19:31;;;;;;;12.90;1.77;;;11.10;97.30;;;;;;5104151;28;21018;-85
2023/03/26 09:22:30;;;;;;;1.93;1.83;;;11.10;97.30;;;;;;5097828;28;20425;-86
2023/03/26 09:25:26;;;;;;;2.17;2.03;;;11.00;97.30;;;;;;5086997;28;20970;-86
2023/03/26 09:28:03;;;;;;;1.27;1.17;;;11.10;97.30;;;;;;5091435;28;20412;-86
2023/03/26 09:30:42;;;;;;;18.77;1.53;;;11.20;97.30;;;;;;5087369;28;20423;-85
2023/03/26 09:33:30;;;;;;;1.90;1.53;;;11.20;97.20;;;;;;5089456;28;20460;-86
2023/03/26 09:36:18;;;;;;;20.33;2.53;;;11.40;97.00;;;;;;5095612;28;20507;-86
2023/03/26 09:39:07;;;;;;;2.07;1.93;;;11.60;96.20;;;;;;5092055;28;20466;-86
2023/03/26 09:41:39;;;;;;;3.87;2.10;;;11.90;96.70;;;;;;5098529;28;20949;-86
2023/03/26 09:44:28;;;;;;;7.00;2.30;;;12.30;96.60;;;;;;5104809;28;20544;-86
2023/03/26 09:47:27;;;;;;;4.00;1.93;;;12.50;94.50;;;;;;5099561;28;20514;-87
2023/03/26 09:50:05;;;;;;;3.27;3.10;;;12.30;93.40;;;;;;5088748;28;20440;-85
2023/03/26 09:53:13;;;;;;;1.77;1.70;;;12.20;94.90;;;;;;5082349;28;20528;-85
2023/03/26 09:56:01;;;;;;;1.20;1.10;;;12.20;94.50;;;;;;5096225;28;20415;-86
2023/03/26 09:58:41;;;;;;;1.43;1.20;;;12.10;93.70;;;;;;5092531;28;20460;-86
2023/03/26 10:01:22;;;;;;;6.20;3.27;;;12.10;94.10;;;;;;5103172;28;20408;-86
2023/03/26 10:04:05;;;;;;;1.30;1.20;;;12.10;93.80;;;;;;5099644;28;20431;-86
2023/03/26 10:06:51;;;;;;;1.70;1.60;;;12.10;94.70;;;;;;5088542;28;20425;-86
2023/03/26 10:09:44;;;;;;;1.30;1.20;;;12.10;94.50;;;;;;5110527;28;20443;-86
2023/03/26 10:12:41;;;;;;;21.17;1.83;;;12.00;94.50;;;;;;5102127;28;20534;-86
2023/03/26 10:15:30;;;;;;;1.80;1.70;;;11.90;94.60;;;;;;5102924;28;20417;-86
2023/03/26 10:18:16;;;;;;;1.20;1.10;;;11.90;94.90;;;;;;5095672;28;20440;-86
2023/03/26 10:20:50;;;;;;;3.80;2.23;;;12.00;94.50;;;;;;5091543;28;21076;-86
2023/03/26 10:23:31;;;;;;;10.43;1.73;;;12.20;95.20;;;;;;5106462;28;20419;-86
2023/03/26 10:26:04;;;;;;;2.00;1.20;;;12.70;94.00;;;;;;5124519;28;20427;-86
2023/03/26 10:28:58;;;;;;;2.50;1.47;;;13.10;92.60;;;;;;5095229;28;20523;-86
2023/03/26 10:31:46;;;;;;;1.53;1.40;;;13.50;92.40;;;;;;5123516;28;20475;-86
2023/03/26 10:34:47;;;;;;;1.23;1.13;;;13.50;90.10;;;;;;5106363;28;20412;-86
2023/03/26 10:37:31;;;;;;;;;;;13.60;89.70;;;;;;5083119;28;20416;-86
2023/03/26 10:40:16;;;;;;;;;;;13.90;90.60;;;;;;5116696;28;20205;-86
2023/03/26 10:43:10;;;;;;;;;;;14.10;88.50;;;;;;5117994;28;20183;-86
2023/03/26 10:45:54;;;;;;;1.53;1.20;;;14.10;88.50;;;;;;5113957;28;20028;-86
2023/03/26 10:48:50;;;;;;;1.37;1.07;;;14.00;87.30;;;;;;5112823;28;20624;-86
2023/03/26 10:51:42;;;;;;;1.03;0.93;;;13.70;89.30;;;;;;5097520;28;20409;-87
2023/03/26 10:54:18;;;;;;;7.10;2.00;;;13.70;88.90;;;;;;5100030;28;20448;-86
2023/03/26 10:56:46;;;;;;;4.77;3.57;;;13.70;88.40;;;;;;5105134;28;20448;-86
2023/03/26 10:59:13;;;;;;;4.70;2.40;;;13.60;88.80;;;;;;5103177;28;20432;-87
2023/03/26 11:02:00;;;;;;;7.50;1.27;;;13.70;88.90;;;;;;5104185;28;20412;-86
2023/03/26 11:04:54;;;;;;;1.77;1.70;;;13.70;88.20;;;;;;5097099;28;20419;-86
2023/03/26 11:07:22;;;;;;;1.10;1.00;;;13.80;88.60;;;;;;5107178;28;20424;-85
2023/03/26 11:10:09;;;;;;;2.80;1.73;;;13.90;88.20;;;;;;5100469;28;20433;-86
2023/03/26 11:12:56;;;;;;;1.27;1.17;;;13.80;87.80;;;;;;5091259;28;20463;-86
2023/03/26 11:15:46;;;;;;;5.60;2.40;;;13.80;88.80;;;;;;5105893;28;20412;-86
2023/03/26 11:18:51;;;;;;;1.17;1.07;;;13.90;87.40;;;;;;5093096;28;20800;-86
2023/03/26 11:21:35;;;;;;;1.77;1.67;;;14.00;86.90;;;;;;5093391;28;20546;-85
2023/03/26 11:24:28;;;;;;;3.37;3.17;;;14.00;86.60;;;;;;5096586;28;20751;-84
2023/03/26 11:27:44;;;;;;;2.97;1.80;;;13.80;86.70;;;;;;5088251;28;20419;-85
2023/03/26 11:30:28;;;;;;;1.10;1.00;;;13.60;88.20;;;;;;5094194;28;20412;-85
2023/03/26 11:33:06;;;;;;;3.33;2.00;;;13.50;88.50;;;;;;5092811;28;20498;-86
2023/03/26 11:35:37;;;;;;;1.80;1.43;;;13.10;88.20;;;;;;5092493;28;20423;-86
2023/03/26 11:38:12;;;;;;;1.47;1.17;;;13.10;89.60;;;;;;5092291;28;20970;-86
2023/03/26 11:40:41;;;;;;;3.37;1.33;;;13.10;89.10;;;;;;5106506;28;20423;-86
2023/03/26 11:43:11;;;;;;;4.00;2.03;;;13.00;89.00;;;;;;5106520;28;20415;-86
2023/03/26 11:45:41;;;;;;;1.20;1.10;;;12.90;89.90;;;;;;5096684;28;20939;-87
2023/03/26 11:48:47;;;;;;;1.50;1.10;;;13.00;89.90;;;;;;5104723;28;20431;-88
2023/03/26 11:51:26;;;;;;;1.10;1.10;;;13.10;90.30;;;;;;5028143;28;21133;-86
2023/03/26 11:53:53;;;;;;;2.30;2.10;;;13.30;89.60;;;;;;5040874;28;20465;-86
2023/03/26 11:56:53;;;;;;;1.10;1.00;;;13.40;90.70;;;;;;5071509;28;20476;-86
2023/03/26 11:59:30;;;;;;;2.70;2.20;;;13.30;88.60;;;;;;5098642;28;20428;-87
2023/03/26 12:01:58;;;;;;;1.50;1.40;;;13.10;88.70;;;;;;5103366;28;20420;-87
2023/03/26 12:04:37;;;;;;;1.80;1.70;;;13.00;89.20;;;;;;5107542;28;20562;-86
2023/03/26 12:07:31;;;;;;;1.53;1.53;;;12.90;89.30;;;;;;5097430;28;20529;-87
2023/03/26 12:09:59;;;;;;;1.33;1.30;;;12.80;88.50;;;;;;5106214;28;20480;-87
2023/03/26 12:12:28;;;;;;;1.53;1.50;;;12.80;89.10;;;;;;5099002;28;20454;-87
2023/03/26 12:14:54;;;;;;;1.40;1.30;;;12.70;89.60;;;;;;5092206;28;20420;-87
2023/03/26 12:17:41;;;;;;;1.20;1.10;;;12.60;90.60;;;;;;5108398;28;20472;-86
2023/03/26 12:20:25;;;;;;;1.77;1.27;;;12.50;91.00;;;;;;5097561;28;20170;-88
2023/03/26 12:22:58;;;;;;;2.33;2.13;;;12.30;93.00;;;;;;5103865;28;20786;-87
2023/03/26 12:25:29;;;;;;;5.27;2.03;;;12.20;96.50;;;;;;5093598;28;20416;-87
2023/03/26 12:28:03;;;;;;;2.03;1.90;;;12.00;96.20;;;;;;5092001;28;20468;-88
2023/03/26 12:30:35;;;;;;;1.30;1.20;;;11.80;95.80;;;;;;5096463;28;21055;-87
2023/03/26 12:33:13;;;;;;;2.30;2.13;;;11.80;97.10;;;;;;5094914;28;20505;-87
2023/03/26 12:35:39;;;;;;;2.10;1.13;;;11.90;97.30;;;;;;5092235;28;20708;-88
2023/03/26 12:38:31;;;;;;;1.33;1.23;;;12.10;97.30;;;;;;5090870;28;20501;-87
2023/03/26 12:41:13;;;;;;;3.27;1.67;;;12.30;97.30;;;;;;5100305;28;20440;-86
2023/03/26 12:43:45;;;;;;;3.90;1.73;;;12.40;97.30;;;;;;5096814;28;20411;-87
2023/03/26 12:46:28;;;;;;;2.40;2.10;;;12.40;97.30;;;;;;5091004;28;20417;-87
2023/03/26 12:48:56;;;;;;;1.27;1.27;;;12.40;96.80;;;;;;5100998;28;20441;-87
2023/03/26 12:51:46;;;;;;;13.63;2.60;;;12.30;96.80;;;;;;5092478;28;20934;-87
2023/03/26 12:54:44;;;;;;;7.17;2.50;;;12.10;95.90;;;;;;5097987;28;20470;-89
2023/03/26 12:57:23;;;;;;;1.10;1.00;;;11.90;96.60;;;;;;5095027;28;21096;-88
2023/03/26 13:00:02;;;;;;;1.10;1.00;;;11.30;97.30;;;;;;5095213;28;20436;-86
2023/03/26 13:02:59;;;;;;;0.83;0.73;;;10.90;97.30;;;;;;5102746;28;20427;-86
2023/03/26 13:06:08;;;;;;;0.90;0.80;;;10.60;97.30;;;;;;5101156;28;20424;-87
2023/03/26 13:08:52;;;;;;;0.90;0.80;;;10.30;97.30;;;;;;5098760;28;21034;-87
2023/03/26 13:11:37;;;;;;;1.20;1.10;;;10.20;97.30;;;;;;5098808;28;20408;-87
2023/03/26 13:14:34;;;;;;;1.00;0.90;;;10.20;97.30;;;;;;5101644;28;20490;-87
2023/03/26 13:17:08;;;;;;;1.80;1.40;;;10.30;97.30;;;;;;5091683;28;20417;-87
2023/03/26 13:19:57;;;;;;;1.10;1.00;;;10.40;97.30;;;;;;5096141;28;20434;-87
2023/03/26 13:22:38;;;;;;;2.83;1.00;;;10.60;97.30;;;;;;5091416;28;20793;-88
2023/03/26 13:25:12;;;;;;;0.97;0.87;;;10.80;97.30;;;;;;5103881;28;20419;-89
2023/03/26 13:28:02;;;;;;;1.67;1.10;;;11.00;97.30;;;;;;5094981;28;20503;-87
2023/03/26 13:30:43;;;;;;;1.33;1.20;;;11.20;97.30;;;;;;5106167;28;20435;-86
2023/03/26 13:33:39;;;;;;;1.40;1.30;;;11.30;97.30;;;;;;5097099;28;20487;-87